Terminal Aerodrome Forecast
Issued by NWS

Home | Current Version | Previous Version | Graphics & Text | Print | Product List | Glossary On
Versions: 1 2 3 4 5 6 7 8 9 10 11 12 13 14 15
000
FTUS43 KICT 271223 AAA
TAFHUT
TAF AMD
KHUT 271223Z 2712/2812 02017KT P6SM SCT008 BKN100
     FM271300 02013KT P6SM SCT012 BKN100
     FM271700 03005KT P6SM SCT035 OVC100
     FM272000 VRB03KT P6SM BKN100=

USA.gov is the U.S. government's official web portal to all federal, state and local government web resources and services.